KWDG/WDG METAR and TAF weather

Enter ICAO airport designator
Station Type Date Time Source
KWDG METAR 2024/06/16 09:55 UTC NOAA

KWDG 160955Z AUTO 19007KT 10SM CLR 23/19 A2982 RMK AO2 LTG DSNT SW


Station Type Date Time Source
KWDG Decoded METAR 2024/06/16 09:55 UTC NOAA

Enid, Enid Woodring Regional Airport, OK, United States (KWDG) 36-22-45N 097-47-28W
Jun 16, 2024 - 05:55 AM EDT / 2024.06.16 0955 UTC
Wind: from the S (190 degrees) at 8 MPH (7 KT):0
Visibility: 10 mile(s):0
Sky conditions: clear
Weather: Lightning observed
Temperature: 73 F (23 C)
Dew Point: 66 F (19 C)
Relative Humidity: 78%
Pressure (altimeter): 29.82 in. Hg (1009 hPa)
ob: KWDG 160955Z AUTO 19007KT 10SM CLR 23/19 A2982 RMK AO2 LTG DSNT SW
cycle: 10

Station Type Date Time Source
KWDG TAF UTC NOAA

Error!

Example: see airport list